Time,TemperatureF,DewpointF,PressureIn,WindDirection,WindDirectionDegrees,WindSpeedMPH,WindSpeedGustMPH,Humidity,HourlyPrecipIn,Conditions,Clouds,dailyrainin,SoftwareType,DateUTC
2013-04-23 00:03:00,33.0,32.0,30.15,North,360,1.0,7.0,96,0.03,,,0.52,,2013-04-23 04:03:00,
2013-04-23 00:12:00,33.0,32.0,30.15,North,360,1.0,7.0,96,0.03,,,0.52,,2013-04-23 04:12:00,
2013-04-23 00:23:00,33.0,32.0,30.14,North,360,3.0,6.0,96,0.02,,,0.52,,2013-04-23 04:23:00,
2013-04-23 00:33:00,33.0,32.0,30.14,NNE,30,2.0,8.0,96,0.00,,,0.52,,2013-04-23 04:33:00,
2013-04-23 00:43:00,33.0,32.0,30.14,NNE,30,2.0,8.0,96,0.00,,,0.52,,2013-04-23 04:43:00,
2013-04-23 00:53:00,33.0,32.0,30.14,NNE,32,3.0,9.0,96,0.00,,,0.52,,2013-04-23 04:53:00,
2013-04-23 01:02:00,33.0,32.0,30.13,NNE,27,3.0,8.0,96,0.00,,,0.52,,2013-04-23 05:02:00,
2013-04-23 01:12:00,33.0,32.0,30.13,NNE,27,3.0,8.0,96,0.00,,,0.52,,2013-04-23 05:12:00,
2013-04-23 01:22:00,32.0,31.0,30.12,North,360,3.0,9.0,96,0.00,,,0.52,,2013-04-23 05:22:00,
2013-04-23 01:32:00,33.0,32.0,30.12,NNE,23,3.0,8.0,96,0.01,,,0.53,,2013-04-23 05:32:00,
2013-04-23 01:42:00,33.0,32.0,30.12,NNE,23,3.0,8.0,96,0.01,,,0.53,,2013-04-23 05:42:00,
2013-04-23 01:52:00,32.0,31.0,30.11,NNE,21,4.0,7.0,96,0.01,,,0.53,,2013-04-23 05:52:00,
2013-04-23 02:02:00,32.0,31.0,30.09,NNE,17,4.0,8.0,96,0.01,,,0.53,,2013-04-23 06:02:00,
2013-04-23 02:12:00,32.0,31.0,30.09,NNE,17,4.0,8.0,96,0.01,,,0.53,,2013-04-23 06:12:00,
2013-04-23 02:21:00,32.0,31.0,30.09,NNE,26,4.0,8.0,96,0.01,,,0.53,,2013-04-23 06:21:00,
2013-04-23 02:33:00,32.0,31.0,30.09,NNE,32,2.0,5.0,96,0.00,,,0.53,,2013-04-23 06:33:00,
2013-04-23 02:42:00,32.0,31.0,30.09,NNE,32,2.0,5.0,96,0.00,,,0.53,,2013-04-23 06:42:00,
2013-04-23 02:52:00,33.0,32.0,30.08,NNE,19,3.0,7.0,96,0.00,,,0.53,,2013-04-23 06:52:00,
2013-04-23 03:02:00,33.0,32.0,30.07,NNE,25,1.0,7.0,96,0.00,,,0.53,,2013-04-23 07:02:00,
2013-04-23 03:11:00,33.0,32.0,30.07,NNE,25,1.0,7.0,96,0.00,,,0.53,,2013-04-23 07:11:00,
2013-04-23 03:21:00,33.0,32.0,30.05,NNE,25,2.0,7.0,96,0.00,,,0.53,,2013-04-23 07:21:00,
2013-04-23 03:32:00,33.0,32.0,30.04,NNE,24,4.0,6.0,96,0.00,,,0.37,,2013-04-23 07:32:00,
2013-04-23 03:42:00,33.0,32.0,30.04,NNE,24,4.0,6.0,96,0.00,,,0.37,,2013-04-23 07:42:00,
2013-04-23 03:52:00,33.0,32.0,30.03,NNE,26,3.0,8.0,96,0.00,,,0.37,,2013-04-23 07:52:00,
2013-04-23 04:02:00,33.0,32.0,30.01,NNE,24,5.0,8.0,96,0.00,,,0.37,,2013-04-23 08:02:00,
2013-04-23 04:11:00,33.0,32.0,30.01,NNE,24,5.0,8.0,96,0.00,,,0.37,,2013-04-23 08:11:00,
2013-04-23 04:21:00,33.0,32.0,30.01,NNE,24,0.0,5.0,97,0.00,,,0.37,,2013-04-23 08:21:00,
2013-04-23 04:32:00,33.0,32.0,29.99,NNE,19,2.0,5.0,97,0.00,,,0.30,,2013-04-23 08:32:00,
2013-04-23 04:42:00,33.0,32.0,29.99,NNE,19,2.0,5.0,97,0.00,,,0.30,,2013-04-23 08:42:00,
2013-04-23 04:52:00,33.0,32.0,29.98,NNE,19,1.0,5.0,97,0.01,,,0.31,,2013-04-23 08:52:00,
2013-04-23 05:01:00,33.0,32.0,29.97,NNE,19,2.0,5.0,97,0.01,,,0.31,,2013-04-23 09:01:00,
2013-04-23 05:11:00,33.0,32.0,29.97,NNE,19,2.0,5.0,97,0.01,,,0.31,,2013-04-23 09:11:00,
2013-04-23 05:21:00,33.0,32.0,29.96,NNE,19,0.0,5.0,97,0.01,,,0.31,,2013-04-23 09:21:00,
2013-04-23 05:33:00,33.0,32.0,29.94,NNE,19,1.0,5.0,97,0.01,,,0.30,,2013-04-23 09:33:00,
2013-04-23 05:43:00,33.0,32.0,29.94,NNE,19,1.0,5.0,97,0.01,,,0.30,,2013-04-23 09:43:00,
2013-04-23 05:52:00,33.0,32.0,29.93,NNE,19,1.0,5.0,97,0.00,,,0.30,,2013-04-23 09:52:00,
2013-04-23 06:02:00,33.0,32.0,29.91,NNE,19,1.0,3.0,97,0.00,,,0.30,,2013-04-23 10:02:00,
2013-04-23 06:13:00,33.0,32.0,29.91,NNE,19,1.0,3.0,97,0.00,,,0.30,,2013-04-23 10:13:00,
2013-04-23 06:22:00,33.0,32.0,29.91,NNE,19,0.0,2.0,97,0.01,,,0.31,,2013-04-23 10:22:00,
2013-04-23 06:33:00,33.0,32.0,29.90,NNE,19,0.0,3.0,97,0.01,,,0.31,,2013-04-23 10:33:00,
2013-04-23 06:42:00,33.0,32.0,29.90,NNE,19,0.0,3.0,97,0.01,,,0.31,,2013-04-23 10:42:00,
2013-04-23 06:52:00,33.0,32.0,29.90,NNE,19,0.0,3.0,97,0.01,,,0.31,,2013-04-23 10:52:00,
2013-04-23 07:03:00,33.0,32.0,29.89,NNE,19,1.0,4.0,97,0.02,,,0.32,,2013-04-23 11:03:00,
2013-04-23 07:12:00,33.0,32.0,29.89,NNE,19,1.0,4.0,97,0.02,,,0.32,,2013-04-23 11:12:00,
2013-04-23 07:21:00,33.0,32.0,29.89,NNE,18,1.0,5.0,97,0.02,,,0.33,,2013-04-23 11:21:00,
2013-04-23 07:32:00,33.0,32.0,29.88,NNE,15,1.0,3.0,97,0.04,,,0.35,,2013-04-23 11:32:00,
2013-04-23 07:42:00,33.0,32.0,29.88,NNE,15,1.0,3.0,97,0.04,,,0.35,,2013-04-23 11:42:00,
2013-04-23 07:52:00,33.0,32.0,29.86,NNE,15,0.0,3.0,97,0.06,,,0.37,,2013-04-23 11:52:00,
2013-04-23 08:02:00,33.0,32.0,29.87,WNW,298,3.0,8.0,97,0.07,,,0.39,,2013-04-23 12:02:00,
2013-04-23 08:12:00,33.0,32.0,29.87,WNW,298,3.0,8.0,97,0.07,,,0.39,,2013-04-23 12:12:00,
2013-04-23 08:22:00,33.0,32.0,29.87,WNW,283,2.0,8.0,97,0.07,,,0.40,,2013-04-23 12:22:00,
2013-04-23 08:32:00,33.0,32.0,29.87,WNW,286,4.0,12.0,97,0.06,,,0.41,,2013-04-23 12:32:00,
2013-04-23 08:42:00,33.0,32.0,29.87,WNW,286,4.0,12.0,97,0.06,,,0.41,,2013-04-23 12:42:00,
2013-04-23 08:51:00,33.0,32.0,29.88,NW,309,2.0,11.0,97,0.04,,,0.41,,2013-04-23 12:51:00,
2013-04-23 09:01:00,33.0,32.0,29.88,NW,311,5.0,11.0,97,0.02,,,0.41,,2013-04-23 13:01:00,
2013-04-23 09:11:00,33.0,32.0,29.88,NW,311,5.0,11.0,97,0.02,,,0.41,,2013-04-23 13:11:00,
2013-04-23 09:21:00,33.0,32.0,29.86,West,276,2.0,13.0,96,0.01,,,0.41,,2013-04-23 13:21:00,
2013-04-23 09:32:00,33.0,32.0,29.87,WNW,300,4.0,10.0,96,0.01,,,0.42,,2013-04-23 13:32:00,
2013-04-23 09:41:00,33.0,32.0,29.87,WNW,300,4.0,10.0,96,0.01,,,0.42,,2013-04-23 13:41:00,
2013-04-23 09:52:00,33.0,32.0,29.87,West,267,2.0,9.0,96,0.01,,,0.42,,2013-04-23 13:52:00,
2013-04-23 10:02:00,33.0,32.0,29.87,WNW,292,4.0,11.0,95,0.01,,,0.42,,2013-04-23 14:02:00,
2013-04-23 10:11:00,33.0,32.0,29.87,WNW,292,4.0,11.0,95,0.01,,,0.42,,2013-04-23 14:11:00,
2013-04-23 10:22:00,33.0,32.0,29.86,NW,304,3.0,12.0,95,0.02,,,0.43,,2013-04-23 14:22:00,
2013-04-23 10:32:00,33.0,32.0,29.86,NW,304,1.0,7.0,95,0.01,,,0.43,,2013-04-23 14:32:00,
2013-04-23 10:42:00,33.0,32.0,29.86,NW,304,1.0,7.0,95,0.01,,,0.43,,2013-04-23 14:42:00,
2013-04-23 10:52:00,33.0,32.0,29.87,NW,313,3.0,10.0,95,0.01,,,0.43,,2013-04-23 14:52:00,
2013-04-23 11:01:00,33.0,32.0,29.87,NW,313,3.0,10.0,95,0.01,,,0.43,,2013-04-23 15:01:00,
2013-04-23 11:12:00,33.0,32.0,29.86,WNW,290,0.0,10.0,95,0.01,,,0.43,,2013-04-23 15:12:00,
2013-04-23 11:21:00,34.0,32.0,29.86,West,261,5.0,14.0,94,0.01,,,0.44,,2013-04-23 15:21:00,
2013-04-23 11:32:00,34.0,32.0,29.87,NE,41,2.0,10.0,93,0.01,,,0.44,,2013-04-23 15:32:00,
2013-04-23 11:42:00,34.0,32.0,29.87,NE,41,2.0,10.0,93,0.01,,,0.44,,2013-04-23 15:42:00,
2013-04-23 11:53:00,34.0,32.0,29.88,North,351,2.0,10.0,92,0.01,,,0.44,,2013-04-23 15:53:00,
2013-04-23 12:03:00,34.0,32.0,29.88,WNW,296,2.0,10.0,91,0.01,,,0.44,,2013-04-23 16:03:00,
2013-04-23 12:12:00,34.0,32.0,29.88,WNW,296,2.0,10.0,91,0.01,,,0.44,,2013-04-23 16:12:00,
2013-04-23 12:23:00,34.0,31.0,29.89,WNW,297,5.0,17.0,89,0.00,,,0.44,,2013-04-23 16:23:00,
2013-04-23 12:34:00,35.0,32.0,29.88,NNW,343,1.0,12.0,88,0.00,,,0.44,,2013-04-23 16:34:00,
2013-04-23 12:43:00,35.0,32.0,29.88,NNW,343,1.0,12.0,88,0.00,,,0.44,,2013-04-23 16:43:00,
2013-04-23 12:52:00,35.0,32.0,29.89,NW,318,6.0,14.0,87,0.00,,,0.44,,2013-04-23 16:52:00,
2013-04-23 13:02:00,35.0,31.0,29.90,WNW,294,7.0,14.0,85,0.00,,,0.44,,2013-04-23 17:02:00,
2013-04-23 13:11:00,35.0,31.0,29.90,WNW,294,7.0,14.0,85,0.00,,,0.44,,2013-04-23 17:11:00,
2013-04-23 13:22:00,34.0,30.0,29.91,ESE,105,6.0,13.0,86,0.00,,,0.44,,2013-04-23 17:22:00,
2013-04-23 13:32:00,34.0,30.0,29.91,NNE,13,6.0,13.0,86,0.00,,,0.44,,2013-04-23 17:32:00,
2013-04-23 13:42:00,34.0,30.0,29.91,NNE,13,6.0,13.0,86,0.00,,,0.44,,2013-04-23 17:42:00,
2013-04-23 13:53:00,35.0,31.0,29.91,WNW,300,6.0,15.0,85,0.00,,,0.44,,2013-04-23 17:53:00,
2013-04-23 14:02:00,35.0,30.0,29.91,WNW,293,5.0,13.0,82,0.00,,,0.44,,2013-04-23 18:02:00,
2013-04-23 14:12:00,35.0,30.0,29.91,WNW,293,5.0,13.0,82,0.00,,,0.44,,2013-04-23 18:12:00,
2013-04-23 14:22:00,35.0,30.0,29.91,NNW,328,4.0,14.0,83,0.00,,,0.44,,2013-04-23 18:22:00,
2013-04-23 14:32:00,35.0,30.0,29.92,NW,326,4.0,14.0,82,0.00,,,0.44,,2013-04-23 18:32:00,
2013-04-23 14:42:00,35.0,30.0,29.92,NW,326,4.0,14.0,82,0.00,,,0.44,,2013-04-23 18:42:00,
2013-04-23 14:52:00,35.0,31.0,29.92,North,350,6.0,14.0,85,0.00,,,0.44,,2013-04-23 18:52:00,
2013-04-23 15:02:00,34.0,31.0,29.92,WNW,298,5.0,15.0,90,0.00,,,0.44,,2013-04-23 19:02:00,
2013-04-23 15:11:00,34.0,31.0,29.92,WNW,298,5.0,15.0,90,0.00,,,0.44,,2013-04-23 19:11:00,
2013-04-23 15:22:00,34.0,31.0,29.92,NW,326,6.0,17.0,88,0.00,,,0.44,,2013-04-23 19:22:00,
2013-04-23 15:32:00,35.0,32.0,29.92,NNW,347,4.0,14.0,89,0.00,,,0.44,,2013-04-23 19:32:00,
2013-04-23 15:42:00,35.0,32.0,29.92,NNW,347,4.0,14.0,89,0.00,,,0.44,,2013-04-23 19:42:00,
2013-04-23 15:52:00,34.0,31.0,29.92,NNE,31,3.0,11.0,90,0.00,,,0.44,,2013-04-23 19:52:00,
2013-04-23 16:02:00,35.0,31.0,29.93,WNW,294,5.0,14.0,86,0.00,,,0.44,,2013-04-23 20:02:00,
2013-04-23 16:11:00,35.0,31.0,29.93,WNW,294,5.0,14.0,86,0.00,,,0.44,,2013-04-23 20:11:00,
2013-04-23 16:22:00,35.0,31.0,29.93,West,278,5.0,16.0,84,0.00,,,0.44,,2013-04-23 20:22:00,
2013-04-23 16:32:00,35.0,31.0,29.93,NNE,17,6.0,13.0,85,0.00,,,0.43,,2013-04-23 20:32:00,
2013-04-23 16:42:00,35.0,31.0,29.93,NNE,17,6.0,13.0,85,0.00,,,0.43,,2013-04-23 20:42:00,
2013-04-23 16:52:00,34.0,31.0,29.94,NE,43,4.0,13.0,88,0.00,,,0.43,,2013-04-23 20:52:00,
2013-04-23 17:02:00,34.0,30.0,29.93,NNW,342,5.0,16.0,86,0.00,,,0.43,,2013-04-23 21:02:00,
2013-04-23 17:12:00,34.0,30.0,29.93,NNW,342,5.0,16.0,86,0.00,,,0.43,,2013-04-23 21:12:00,
2013-04-23 17:21:00,34.0,31.0,29.93,NNE,12,5.0,16.0,87,0.00,,,0.43,,2013-04-23 21:21:00,
2013-04-23 17:33:00,34.0,31.0,29.94,NNE,15,5.0,12.0,89,0.00,,,0.35,,2013-04-23 21:33:00,
2013-04-23 17:43:00,34.0,31.0,29.94,NNE,15,5.0,12.0,89,0.00,,,0.35,,2013-04-23 21:43:00,
2013-04-23 17:52:00,33.0,30.0,29.94,NW,322,5.0,13.0,90,0.00,,,0.35,,2013-04-23 21:52:00,
2013-04-23 18:03:00,34.0,30.0,29.94,NW,319,8.0,15.0,85,0.00,,,0.35,,2013-04-23 22:03:00,
2013-04-23 18:12:00,34.0,30.0,29.94,NW,319,8.0,15.0,85,0.00,,,0.35,,2013-04-23 22:12:00,
2013-04-23 18:22:00,34.0,29.0,29.94,NNE,15,4.0,12.0,83,0.00,,,0.35,,2013-04-23 22:22:00,
2013-04-23 18:33:00,34.0,31.0,29.95,WNW,290,4.0,9.0,87,0.00,,,0.30,,2013-04-23 22:33:00,
2013-04-23 18:42:00,34.0,31.0,29.95,WNW,290,4.0,9.0,87,0.00,,,0.30,,2013-04-23 22:42:00,
2013-04-23 18:52:00,33.0,30.0,29.95,NNW,333,3.0,16.0,88,0.00,,,0.30,,2013-04-23 22:52:00,
2013-04-23 19:03:00,34.0,30.0,29.96,North,11,4.0,14.0,84,0.00,,,0.30,,2013-04-23 23:03:00,
2013-04-23 19:12:00,34.0,30.0,29.96,North,11,4.0,14.0,84,0.00,,,0.30,,2013-04-23 23:12:00,
2013-04-23 19:22:00,34.0,29.0,29.96,NNE,23,4.0,12.0,83,0.00,,,0.30,,2013-04-23 23:22:00,
2013-04-23 19:32:00,34.0,29.0,29.96,NW,325,3.0,12.0,82,0.00,,,0.27,,2013-04-23 23:32:00,
2013-04-23 19:42:00,34.0,29.0,29.96,NW,325,3.0,12.0,82,0.00,,,0.27,,2013-04-23 23:42:00,
2013-04-23 19:52:00,34.0,28.0,29.96,WNW,296,5.0,14.0,79,0.00,,,0.27,,2013-04-23 23:52:00,
2013-04-23 20:01:00,34.0,28.0,29.96,NW,323,4.0,12.0,79,0.00,,,0.27,,2013-04-24 00:01:00,
2013-04-23 20:11:00,34.0,28.0,29.96,NW,323,4.0,12.0,79,0.00,,,0.27,,2013-04-24 00:11:00,
2013-04-23 20:22:00,34.0,28.0,29.96,WNW,302,2.0,11.0,78,0.00,,,0.27,,2013-04-24 00:22:00,
2013-04-23 20:32:00,34.0,28.0,29.96,NNW,329,2.0,9.0,77,0.00,,,0.26,,2013-04-24 00:32:00,
2013-04-23 20:41:00,34.0,28.0,29.96,NNW,329,2.0,9.0,77,0.00,,,0.26,,2013-04-24 00:41:00,
2013-04-23 20:52:00,34.0,27.0,29.96,North,5,3.0,15.0,74,0.00,,,0.26,,2013-04-24 00:52:00,
2013-04-23 21:01:00,34.0,26.0,29.96,NW,311,4.0,11.0,73,0.00,,,0.26,,2013-04-24 01:01:00,
2013-04-23 21:11:00,34.0,26.0,29.96,NW,311,4.0,11.0,73,0.00,,,0.26,,2013-04-24 01:11:00,
2013-04-23 21:21:00,34.0,27.0,29.96,WNW,294,2.0,9.0,74,0.00,,,0.26,,2013-04-24 01:21:00,
2013-04-23 21:32:00,34.0,27.0,29.96,WNW,301,3.0,10.0,74,0.00,,,0.24,,2013-04-24 01:32:00,
2013-04-23 21:42:00,34.0,27.0,29.96,WNW,301,3.0,10.0,74,0.00,,,0.24,,2013-04-24 01:42:00,
2013-04-23 21:52:00,34.0,27.0,29.96,WNW,293,1.0,7.0,76,0.00,,,0.24,,2013-04-24 01:52:00,
2013-04-23 22:02:00,34.0,27.0,29.97,WNW,300,2.0,10.0,75,0.00,,,0.24,,2013-04-24 02:02:00,
2013-04-23 22:16:00,34.0,27.0,29.97,WNW,300,2.0,10.0,75,0.00,,,0.24,,2013-04-24 02:16:00,
2013-04-23 22:29:00,34.0,27.0,29.97,West,277,1.0,4.0,75,0.00,,,0.24,,2013-04-24 02:29:00,
2013-04-23 22:39:00,34.0,27.0,29.97,WNW,282,0.0,8.0,76,0.00,,,0.21,,2013-04-24 02:39:00,
2013-04-23 22:46:00,34.0,27.0,29.97,WNW,282,0.0,8.0,76,0.00,,,0.21,,2013-04-24 02:46:00,
2013-04-23 22:56:00,33.0,27.0,29.97,West,261,1.0,6.0,77,0.00,,,0.21,,2013-04-24 02:56:00,
2013-04-23 23:08:00,33.0,27.0,29.96,WNW,284,1.0,5.0,77,0.00,,,0.21,,2013-04-24 03:08:00,
2013-04-23 23:16:00,33.0,27.0,29.96,WNW,284,1.0,5.0,77,0.00,,,0.21,,2013-04-24 03:16:00,
2013-04-23 23:28:00,32.0,26.0,29.96,West,264,1.0,4.0,78,0.00,,,0.21,,2013-04-24 03:28:00,
2013-04-23 23:56:00,31.0,25.0,29.96,West,263,0.0,4.0,78,0.00,,,0.18,,2013-04-24 03:56:00,